createdAt,value
2023-01-13T00:00:31.124Z,22.85
2023-01-13T00:03:01.288Z,23.52
2023-01-13T00:05:31.422Z,24.38
2023-01-13T00:08:01.449Z,24.38
2023-01-13T00:10:31.607Z,24.02
2023-01-13T00:13:01.683Z,25.33
2023-01-13T00:15:35.093Z,23.23
2023-01-13T00:18:05.242Z,25.67
2023-01-13T00:20:37.848Z,24.15
2023-01-13T00:23:07.927Z,24.08
2023-01-13T00:25:37.944Z,24.83
2023-01-13T00:28:09.926Z,23.55
2023-01-13T00:30:42.964Z,23.95
2023-01-13T00:33:13.049Z,24.38
2023-01-13T00:35:43.391Z,22.98
2023-01-13T00:38:13.447Z,24.85
2023-01-13T00:40:44.633Z,25.90
2023-01-13T00:43:24.075Z,26.55
2023-01-13T00:45:57.108Z,26.23
2023-01-13T00:48:27.991Z,28.97
2023-01-13T00:50:59.162Z,28.88
2023-01-13T00:53:30.388Z,28.63
2023-01-13T00:56:03.819Z,28.55
2023-01-13T00:58:36.083Z,27.98
2023-01-13T01:01:10.979Z,26.77
2023-01-13T01:03:41.375Z,27.17
2023-01-13T01:06:14.377Z,26.52
2023-01-13T01:08:45.225Z,27.47
2023-01-13T01:11:17.593Z,26.95
2023-01-13T01:13:54.893Z,27.60
2023-01-13T01:16:30.092Z,27.63
2023-01-13T01:19:00.540Z,27.17
2023-01-13T01:21:31.715Z,26.90
2023-01-13T01:24:03.338Z,26.13
2023-01-13T01:26:35.132Z,26.42
2023-01-13T01:29:05.438Z,27.00
2023-01-13T01:31:38.112Z,25.90
2023-01-13T01:34:08.549Z,24.35
2023-01-13T01:36:38.925Z,24.65
2023-01-13T01:39:09.148Z,23.83
2023-01-13T01:41:40.034Z,23.42
2023-01-13T01:44:42.980Z,23.15
2023-01-13T01:47:21.370Z,23.10
2023-01-13T01:49:52.948Z,21.98
2023-01-13T01:52:29.120Z,22.23
2023-01-13T01:55:04.658Z,21.65
2023-01-13T01:57:41.272Z,21.38
2023-01-13T02:00:13.395Z,21.58
2023-01-13T02:02:49.277Z,20.27
2023-01-13T02:05:20.414Z,20.67
2023-01-13T02:07:52.818Z,19.77
2023-01-13T02:10:24.590Z,19.15
2023-01-13T02:12:54.391Z,18.63
2023-01-13T02:15:29.476Z,19.23
2023-01-13T02:18:32.003Z,18.85
2023-01-13T02:21:21.050Z,19.80
2023-01-13T02:24:36.127Z,19.00
2023-01-13T02:27:32.451Z,17.13
2023-01-13T02:30:48.952Z,18.10
2023-01-13T02:33:46.731Z,17.88
2023-01-13T02:36:28.180Z,16.60
2023-01-13T02:39:03.840Z,15.95
2023-01-13T02:41:54.967Z,16.70
2023-01-13T02:44:31.189Z,16.35
2023-01-13T02:47:09.570Z,16.20
2023-01-13T02:49:42.911Z,16.90
2023-01-13T02:52:16.975Z,15.27
2023-01-13T02:54:54.200Z,15.45
2023-01-13T02:57:26.219Z,15.50
2023-01-13T02:59:58.328Z,16.10
2023-01-13T03:02:31.228Z,14.88
2023-01-13T03:05:02.945Z,14.10
2023-01-13T03:07:55.929Z,14.18
2023-01-13T03:10:36.777Z,14.23
2023-01-13T03:13:23.555Z,15.48
2023-01-13T03:16:03.033Z,15.50
2023-01-13T03:18:48.771Z,16.02
2023-01-13T03:21:26.042Z,14.77
2023-01-13T03:24:03.947Z,14.70
2023-01-13T03:26:41.581Z,15.05
2023-01-13T03:29:27.747Z,15.30
2023-01-13T03:32:01.741Z,16.35
2023-01-13T03:34:38.111Z,14.60
2023-01-13T03:37:11.946Z,15.30
2023-01-13T03:42:21.077Z,14.38
2023-01-13T03:44:55.119Z,15.07
2023-01-13T03:47:32.375Z,15.38
2023-01-13T03:50:09.646Z,14.98
2023-01-13T03:52:43.439Z,14.60
2023-01-13T03:55:18.684Z,14.05
2023-01-13T03:57:57.012Z,13.82
2023-01-13T04:00:34.712Z,13.85
2023-01-13T04:03:10.990Z,12.52
2023-01-13T04:05:48.427Z,13.40
2023-01-13T04:08:24.855Z,13.38
2023-01-13T04:11:01.267Z,14.13
2023-01-13T04:13:35.360Z,15.20
2023-01-13T04:16:07.995Z,15.15
2023-01-13T04:18:40.945Z,15.23
2023-01-13T04:21:13.982Z,15.05
2023-01-13T04:23:44.100Z,16.63
2023-01-13T04:26:14.381Z,16.75
2023-01-13T04:28:44.454Z,14.77
2023-01-13T04:31:15.130Z,13.98
2023-01-13T04:33:45.188Z,14.48
2023-01-13T04:36:19.732Z,14.55
2023-01-13T04:38:49.924Z,13.52
2023-01-13T04:41:20.006Z,15.77
2023-01-13T04:43:50.336Z,14.90
2023-01-13T04:46:20.448Z,14.50
2023-01-13T04:48:50.644Z,14.85
2023-01-13T04:51:23.274Z,14.95
2023-01-13T04:53:53.295Z,14.75
2023-01-13T04:56:23.360Z,13.10
2023-01-13T04:58:53.477Z,13.43
2023-01-13T05:01:24.129Z,12.60
2023-01-13T05:03:54.220Z,13.88
2023-01-13T05:06:27.072Z,12.07
2023-01-13T05:08:57.392Z,12.18
2023-01-13T05:11:39.835Z,12.93
2023-01-13T05:14:22.341Z,12.05
2023-01-13T05:17:04.084Z,11.30
2023-01-13T05:19:36.969Z,10.23
2023-01-13T05:22:22.415Z,9.90
2023-01-13T05:25:04.937Z,10.00
2023-01-13T05:27:35.887Z,9.88
2023-01-13T05:30:06.499Z,9.73
2023-01-13T05:32:36.707Z,12.60
2023-01-13T05:35:07.592Z,11.65
2023-01-13T05:37:40.410Z,13.68
2023-01-13T05:40:24.429Z,15.55
2023-01-13T05:43:16.789Z,14.98
2023-01-13T05:45:47.462Z,18.08
2023-01-13T05:48:18.096Z,18.40
2023-01-13T05:50:49.516Z,19.13
2023-01-13T05:53:23.242Z,19.65
2023-01-13T05:55:54.202Z,21.30
2023-01-13T05:58:25.710Z,22.30
2023-01-13T06:00:56.357Z,20.58
2023-01-13T06:03:26.572Z,23.08
2023-01-13T06:05:59.528Z,23.25
2023-01-13T06:08:33.043Z,24.23
2023-01-13T06:11:03.091Z,22.65
2023-01-13T06:13:33.124Z,22.92
2023-01-13T06:16:03.541Z,21.25
2023-01-13T06:18:33.682Z,22.00
2023-01-13T06:21:04.954Z,22.73
2023-01-13T06:23:38.850Z,22.35
2023-01-13T06:26:15.704Z,24.08
2023-01-13T06:28:46.151Z,26.23
2023-01-13T06:31:16.427Z,25.67
2023-01-13T06:33:52.021Z,23.88
2023-01-13T06:36:25.562Z,24.40
2023-01-13T06:39:00.945Z,23.58
2023-01-13T06:41:46.556Z,30.52
2023-01-13T06:44:16.937Z,24.80
2023-01-13T06:46:47.422Z,23.38
2023-01-13T06:49:17.648Z,25.98
2023-01-13T06:51:47.965Z,26.00
2023-01-13T06:54:20.823Z,29.05
2023-01-13T06:56:50.921Z,28.73
2023-01-13T06:59:20.961Z,26.25
2023-01-13T07:01:51.268Z,26.63
2023-01-13T07:04:21.794Z,28.02
2023-01-13T07:06:52.122Z,27.90
2023-01-13T07:09:24.806Z,26.45
2023-01-13T07:11:54.889Z,28.73
2023-01-13T07:14:37.282Z,27.52
2023-01-13T07:17:07.353Z,26.73
2023-01-13T07:19:37.366Z,27.85
2023-01-13T07:22:07.588Z,27.75
2023-01-13T07:24:55.701Z,29.20
2023-01-13T07:27:26.036Z,30.25
2023-01-13T07:29:56.269Z,29.63
2023-01-13T07:32:26.457Z,31.85
2023-01-13T07:34:56.647Z,31.15
2023-01-13T07:37:26.728Z,30.27
2023-01-13T07:39:59.569Z,30.65
2023-01-13T07:42:41.998Z,31.95
2023-01-13T07:45:13.672Z,32.20
2023-01-13T07:47:44.181Z,31.83
2023-01-13T07:50:17.366Z,29.20
2023-01-13T07:52:47.428Z,31.08
2023-01-13T07:55:20.263Z,30.60
2023-01-13T07:57:51.843Z,30.98
2023-01-13T08:00:23.119Z,31.50
2023-01-13T08:02:53.275Z,33.28
2023-01-13T08:05:23.376Z,34.08
2023-01-13T08:07:53.469Z,33.70
2023-01-13T08:10:28.713Z,34.30
2023-01-13T08:13:11.053Z,33.55
2023-01-13T08:15:41.493Z,33.97
2023-01-13T08:18:11.720Z,35.40
2023-01-13T08:20:41.802Z,35.38
2023-01-13T08:23:11.940Z,35.10
2023-01-13T08:25:44.976Z,32.22
2023-01-13T08:28:15.252Z,35.03
2023-01-13T08:30:46.082Z,35.30
2023-01-13T08:33:16.663Z,34.72
2023-01-13T08:35:48.316Z,36.47
2023-01-13T08:38:18.450Z,35.75
2023-01-13T08:40:51.115Z,35.55
2023-01-13T08:43:21.302Z,35.33
2023-01-13T08:46:00.280Z,32.47
2023-01-13T08:48:31.788Z,31.83
2023-01-13T08:51:06.997Z,33.17
2023-01-13T08:53:37.234Z,32.78
2023-01-13T08:56:13.663Z,34.75
2023-01-13T08:58:43.687Z,32.60
2023-01-13T09:01:16.759Z,33.80
2023-01-13T09:03:46.839Z,38.88
2023-01-13T09:06:18.179Z,39.33
2023-01-13T09:08:48.656Z,39.35
2023-01-13T09:11:35.713Z,37.22
2023-01-13T09:14:06.009Z,34.55
2023-01-13T09:16:36.076Z,35.67
2023-01-13T09:19:06.152Z,32.45
2023-01-13T09:21:36.196Z,35.00
2023-01-13T09:24:06.468Z,43.58
2023-01-13T09:26:41.074Z,37.83
2023-01-13T09:29:11.142Z,35.70
2023-01-13T09:31:43.944Z,35.92
2023-01-13T09:34:29.643Z,35.58
2023-01-13T09:36:59.692Z,36.25
2023-01-13T09:39:29.991Z,37.25
2023-01-13T09:42:29.552Z,38.30
2023-01-13T09:45:05.966Z,38.92
2023-01-13T09:47:42.615Z,43.78
2023-01-13T09:50:27.998Z,38.78
2023-01-13T09:52:58.849Z,39.05
2023-01-13T09:55:33.990Z,40.00
2023-01-13T09:58:15.364Z,44.47
2023-01-13T10:00:50.713Z,43.53
2023-01-13T10:03:25.643Z,44.70
2023-01-13T10:06:04.833Z,42.15
2023-01-13T10:08:37.912Z,42.85
2023-01-13T10:11:28.323Z,43.17
2023-01-13T10:14:04.385Z,43.60
2023-01-13T10:16:42.369Z,43.35
2023-01-13T10:19:20.588Z,46.42
2023-01-13T10:22:27.466Z,46.38
2023-01-13T10:25:11.959Z,46.60
2023-01-13T10:27:46.908Z,45.83
2023-01-13T10:30:31.500Z,37.00
2023-01-13T10:33:03.845Z,34.55
2023-01-13T10:35:52.945Z,34.92
2023-01-13T10:38:26.731Z,26.80
2023-01-13T10:40:58.894Z,28.50
2023-01-13T10:43:30.619Z,27.85
2023-01-13T10:46:16.233Z,27.83
2023-01-13T10:48:55.846Z,28.05
2023-01-13T10:51:28.677Z,27.63
2023-01-13T10:54:01.734Z,27.67
2023-01-13T10:56:34.826Z,27.23
2023-01-13T10:59:22.396Z,27.90
2023-01-13T11:02:23.836Z,26.85
2023-01-13T11:05:06.955Z,26.52
2023-01-13T11:07:39.747Z,26.00
2023-01-13T11:10:22.611Z,26.98
2023-01-13T11:13:02.498Z,25.02
2023-01-13T11:15:43.105Z,26.55
2023-01-13T11:18:22.638Z,25.48
2023-01-13T11:20:54.627Z,25.77
2023-01-13T11:23:28.153Z,26.00
2023-01-13T11:26:04.726Z,26.10
2023-01-13T11:28:47.590Z,25.23
2023-01-13T11:31:24.689Z,23.55
2023-01-13T11:34:02.647Z,24.52
2023-01-13T11:36:37.859Z,24.20
2023-01-13T11:39:22.755Z,24.88
2023-01-13T11:42:12.533Z,24.55
2023-01-13T11:44:49.098Z,24.73
2023-01-13T11:47:22.756Z,26.63
2023-01-13T11:49:55.506Z,25.65
2023-01-13T11:52:31.137Z,26.88
2023-01-13T11:55:21.775Z,25.58
2023-01-13T11:58:29.073Z,25.17
2023-01-13T12:01:12.353Z,27.15
2023-01-13T12:03:49.264Z,26.23
2023-01-13T12:06:35.776Z,25.23
2023-01-13T12:09:36.724Z,25.77
2023-01-13T12:12:27.862Z,24.67
2023-01-13T12:15:21.674Z,25.17
2023-01-13T12:18:03.281Z,25.83
2023-01-13T12:20:40.160Z,26.10
2023-01-13T12:23:21.119Z,24.52
2023-01-13T12:25:55.970Z,23.23
2023-01-13T12:28:31.689Z,22.75
2023-01-13T12:31:04.532Z,24.63
2023-01-13T12:33:50.355Z,41.28
2023-01-13T12:36:30.437Z,26.73
2023-01-13T12:39:12.604Z,58.50
2023-01-13T12:42:02.694Z,26.13
2023-01-13T12:44:32.719Z,30.77
2023-01-13T12:47:03.588Z,25.08
2023-01-13T12:49:35.212Z,24.42
2023-01-13T12:52:15.576Z,28.50
2023-01-13T13:09:46.853Z,22.85
2023-01-13T13:13:07.847Z,20.35
2023-01-13T13:15:40.350Z,21.75
2023-01-13T13:18:31.418Z,20.90
2023-01-13T13:21:05.252Z,18.60
2023-01-13T13:26:31.830Z,18.42
2023-01-13T13:29:35.245Z,21.37
2023-01-13T13:35:27.651Z,21.50
2023-01-13T13:38:19.527Z,29.05
2023-01-13T13:41:03.385Z,28.60
2023-01-13T13:43:55.621Z,38.63
2023-01-13T13:46:40.617Z,46.53
2023-01-13T13:49:10.669Z,42.10
2023-01-13T13:51:45.325Z,38.40
2023-01-13T14:03:40.326Z,24.48
2023-01-13T14:06:24.721Z,20.63
2023-01-13T14:08:55.965Z,22.67
2023-01-13T14:11:32.699Z,21.58
2023-01-13T14:23:22.014Z,18.90
2023-01-13T14:25:53.808Z,18.70
2023-01-13T14:28:27.736Z,20.17
2023-01-13T14:30:59.394Z,20.75
2023-01-13T14:33:38.913Z,20.27
2023-01-13T14:36:18.451Z,21.13
2023-01-13T14:38:53.373Z,22.30
2023-01-13T14:41:31.846Z,22.38
2023-01-13T14:44:04.645Z,29.15
2023-01-13T14:46:41.540Z,27.20
2023-01-13T14:49:37.270Z,37.20
2023-01-13T14:52:10.953Z,46.17
2023-01-13T14:54:50.418Z,144.80
2023-01-13T15:03:20.596Z,29.88
2023-01-13T15:05:51.680Z,27.98
2023-01-13T15:08:45.683Z,32.80
2023-01-13T15:11:26.745Z,30.92
2023-01-13T15:14:01.706Z,29.88
2023-01-13T15:16:34.972Z,35.33
2023-01-13T15:19:05.139Z,35.08
2023-01-13T15:21:35.263Z,33.10
2023-01-13T15:24:05.533Z,32.90
2023-01-13T15:26:38.437Z,37.38
2023-01-13T15:29:16.357Z,36.60
2023-01-13T15:31:47.598Z,34.20
2023-01-13T15:34:17.710Z,31.80
2023-01-13T15:36:47.989Z,33.80
2023-01-13T15:39:18.251Z,35.00
2023-01-13T15:42:03.260Z,35.53
2023-01-13T15:44:45.658Z,32.88
2023-01-13T15:47:15.773Z,32.45
2023-01-13T15:49:48.500Z,31.15
2023-01-13T15:52:24.514Z,30.10
2023-01-13T15:54:55.865Z,31.85
2023-01-13T15:57:31.064Z,32.13
2023-01-13T16:00:05.727Z,31.77
2023-01-13T16:02:36.915Z,32.75
2023-01-13T16:05:09.796Z,32.85
2023-01-13T16:07:39.960Z,33.92
2023-01-13T16:10:18.745Z,34.08
2023-01-13T16:12:52.036Z,35.42
2023-01-13T16:15:25.254Z,34.97
2023-01-13T16:17:59.898Z,37.38
2023-01-13T16:20:30.948Z,37.17
2023-01-13T16:23:01.082Z,35.72
2023-01-13T16:25:31.520Z,35.67
2023-01-13T16:28:04.542Z,36.38
2023-01-13T16:30:37.178Z,38.13
2023-01-13T16:33:07.492Z,36.35
2023-01-13T16:35:37.768Z,39.55
2023-01-13T16:38:27.970Z,37.17
2023-01-13T16:41:00.191Z,36.97
2023-01-13T16:43:33.076Z,36.92
2023-01-13T16:46:03.410Z,39.80
2023-01-13T16:48:33.684Z,37.97
2023-01-13T16:51:05.206Z,38.72
2023-01-13T16:53:35.257Z,38.97
2023-01-13T16:56:06.062Z,44.92
2023-01-13T16:58:38.755Z,43.55
2023-01-13T17:01:09.234Z,46.33
2023-01-13T17:03:39.407Z,47.25
2023-01-13T17:06:13.445Z,45.47
2023-01-13T17:08:43.567Z,42.55
2023-01-13T17:11:13.949Z,42.40
2023-01-13T17:13:47.093Z,39.78
2023-01-13T17:16:22.402Z,40.75
2023-01-13T17:18:52.760Z,40.00
2023-01-13T17:21:22.819Z,38.95
2023-01-13T17:23:52.926Z,40.70
2023-01-13T17:26:34.093Z,40.05
2023-01-13T17:29:08.951Z,39.85
2023-01-13T17:31:39.291Z,42.88
2023-01-13T17:34:10.024Z,44.28
2023-01-13T17:36:40.549Z,41.17
2023-01-13T17:39:10.877Z,41.65
2023-01-13T17:41:41.167Z,43.70
2023-01-13T17:44:16.662Z,43.33
2023-01-13T17:46:47.149Z,42.85
2023-01-13T17:49:18.887Z,42.95
2023-01-13T17:51:51.533Z,41.80
2023-01-13T17:54:22.925Z,42.95
2023-01-13T17:56:53.287Z,43.75
2023-01-13T17:59:26.273Z,42.83
2023-01-13T18:01:56.413Z,45.53
2023-01-13T18:04:31.011Z,46.60
2023-01-13T18:07:01.029Z,46.85
2023-01-13T18:09:31.056Z,49.58
2023-01-13T18:12:01.092Z,49.90
2023-01-13T18:14:34.147Z,52.03
2023-01-13T18:17:04.312Z,51.93
2023-01-13T19:46:39.213Z,67.75
2023-01-13T19:49:11.733Z,64.37
2023-01-13T19:51:44.195Z,68.55
2023-01-13T19:54:20.711Z,66.10
2023-01-13T19:57:11.260Z,65.57
2023-01-13T19:59:45.477Z,64.15
2023-01-13T20:02:27.852Z,66.70
2023-01-13T20:04:59.101Z,65.28
2023-01-13T20:07:31.976Z,67.95
2023-01-13T20:10:02.091Z,67.82
2023-01-13T20:12:32.421Z,68.53
2023-01-13T20:15:02.591Z,73.88
2023-01-13T20:17:35.313Z,74.90
2023-01-13T20:20:13.888Z,75.00
2023-01-13T20:22:51.251Z,80.13
2023-01-13T20:25:21.973Z,155.48
2023-01-13T20:40:26.198Z,181.98
2023-01-13T20:42:53.920Z,144.05
2023-01-13T20:48:53.416Z,98.15
2023-01-13T20:51:23.754Z,75.72
2023-01-13T20:54:09.404Z,80.05
2023-01-13T20:57:14.520Z,75.68
2023-01-13T20:59:53.306Z,71.95
2023-01-13T21:03:48.583Z,82.70
2023-01-13T21:06:23.823Z,102.97
2023-01-13T21:08:58.892Z,81.22
2023-01-13T21:11:45.230Z,78.60
2023-01-13T21:14:33.828Z,70.82
2023-01-13T21:17:28.724Z,70.32
2023-01-13T21:19:56.558Z,65.55
2023-01-13T21:22:27.625Z,63.20
2023-01-13T21:24:58.589Z,65.03
2023-01-13T21:27:28.759Z,63.72
2023-01-13T21:30:01.456Z,66.13
2023-01-13T21:32:35.018Z,66.55
2023-01-13T21:35:05.605Z,73.63
2023-01-13T21:37:38.471Z,71.10
2023-01-13T21:40:11.167Z,71.63
2023-01-13T21:42:56.605Z,75.90
2023-01-13T21:45:42.439Z,78.05
2023-01-13T21:48:12.759Z,76.18
